createdAt,value
2019-02-06T00:01:32.182Z,101101.91
2019-02-06T00:04:01.644Z,101099.56
2019-02-06T00:06:30.845Z,101093.88
2019-02-06T00:09:00.677Z,101104.22
2019-02-06T00:11:29.850Z,101109.06
2019-02-06T00:13:59.620Z,101107.56
2019-02-06T00:16:29.167Z,101105.57
2019-02-06T00:18:59.106Z,101102.23
2019-02-06T00:21:28.563Z,101094.88
2019-02-06T00:23:58.038Z,101090.87
2019-02-06T00:26:27.214Z,101096.73
2019-02-06T00:28:56.749Z,101102.23
2019-02-06T00:31:26.001Z,101094.22
2019-02-06T00:33:56.438Z,101098.89
2019-02-06T00:36:25.909Z,101104.23
2019-02-06T00:38:55.471Z,101099.88
2019-02-06T00:41:24.955Z,101092.70
2019-02-06T00:43:54.821Z,101093.22
2019-02-06T00:46:24.003Z,101094.87
2019-02-06T00:48:53.477Z,101088.88
2019-02-06T00:51:23.289Z,101095.89
2019-02-06T00:53:53.226Z,101080.52
2019-02-06T00:56:23.024Z,101079.53
2019-02-06T00:58:52.498Z,101083.72
2019-02-06T01:01:22.292Z,101084.70
2019-02-06T01:03:52.159Z,101080.21
2019-02-06T01:06:21.626Z,101085.55
2019-02-06T01:11:26.711Z,101090.36
2019-02-06T01:13:55.912Z,101085.39
2019-02-06T01:16:25.374Z,101078.36
2019-02-06T01:18:54.865Z,101077.02
2019-02-06T01:21:26.318Z,101076.20
2019-02-06T01:23:55.513Z,101074.69
2019-02-06T01:26:24.945Z,101074.69
2019-02-06T01:28:54.159Z,101077.20
2019-02-06T01:34:14.058Z,101065.84
2019-02-06T01:36:44.064Z,101065.85
2019-02-06T01:39:14.061Z,101067.69
2019-02-06T01:41:43.232Z,101061.83
2019-02-06T01:44:13.299Z,101054.67
2019-02-06T01:46:42.752Z,101047.83
2019-02-06T01:49:12.309Z,101040.83
2019-02-06T01:51:42.060Z,101036.17
2019-02-06T01:54:12.136Z,101031.66
2019-02-06T01:56:41.566Z,101035.84
2019-02-06T01:59:10.765Z,101030.15
2019-02-06T02:01:40.217Z,101032.66
2019-02-06T02:04:09.754Z,101042.17
2019-02-06T02:06:39.769Z,101033.17
2019-02-06T02:09:15.333Z,101033.50
2019-02-06T02:11:44.519Z,101031.83
2019-02-06T02:14:14.010Z,101030.50
2019-02-06T02:16:44.101Z,101023.16
2019-02-06T02:19:13.644Z,101017.48
2019-02-06T02:21:43.142Z,101015.14
2019-02-06T02:24:12.579Z,101012.47
2019-02-06T02:26:41.799Z,101005.66
2019-02-06T02:29:11.576Z,101006.15
2019-02-06T02:31:42.784Z,100995.66
2019-02-06T02:34:11.966Z,100993.31
2019-02-06T02:36:41.192Z,100995.27
2019-02-06T02:39:10.638Z,100992.60
2019-02-06T02:41:40.226Z,100987.78
2019-02-06T02:44:09.624Z,100985.62
2019-02-06T02:46:39.708Z,100970.76
2019-02-06T02:49:09.168Z,100966.78
2019-02-06T02:51:38.488Z,100960.42
2019-02-06T02:54:28.318Z,100955.25
2019-02-06T02:56:59.823Z,100948.06
2019-02-06T02:59:29.285Z,100941.89
2019-02-06T03:04:59.989Z,100934.38
2019-02-06T03:07:29.181Z,100932.70
2019-02-06T03:09:58.636Z,100938.36
2019-02-06T03:12:27.854Z,100926.02
2019-02-06T03:14:57.436Z,100923.66
2019-02-06T03:17:26.935Z,100916.32
2019-02-06T03:19:58.133Z,100911.28
2019-02-06T03:22:27.341Z,100903.06
2019-02-06T03:24:57.332Z,100900.69
2019-02-06T03:27:27.179Z,100896.89
2019-02-06T03:29:56.941Z,100882.56
2019-02-06T03:32:26.457Z,100889.55
2019-02-06T03:34:57.548Z,100888.44
2019-02-06T03:37:27.292Z,100883.14
2019-02-06T03:39:57.412Z,100878.33
2019-02-06T03:42:26.614Z,100874.03
2019-02-06T03:44:55.884Z,100868.02
2019-02-06T03:47:25.443Z,100871.22
2019-02-06T03:49:55.205Z,100866.03
2019-02-06T03:52:24.790Z,100858.67
2019-02-06T03:54:54.542Z,100860.89
2019-02-06T03:57:24.057Z,100868.58
2019-02-06T03:59:54.148Z,100863.75
2019-02-06T04:02:23.635Z,100869.91
2019-02-06T04:04:53.084Z,100871.11
2019-02-06T04:07:23.207Z,100863.75
2019-02-06T04:09:52.390Z,100863.60
2019-02-06T04:12:22.147Z,100861.59
2019-02-06T04:14:51.577Z,100864.41
2019-02-06T04:17:21.468Z,100863.05
2019-02-06T04:19:52.359Z,100853.22
2019-02-06T04:22:21.935Z,100858.02
2019-02-06T04:24:52.277Z,100856.34
2019-02-06T04:27:23.189Z,100859.19
2019-02-06T04:29:52.640Z,100860.98
2019-02-06T04:32:23.543Z,100862.02
2019-02-06T04:34:53.060Z,100865.88
2019-02-06T04:37:22.925Z,100857.36
2019-02-06T04:39:52.972Z,100858.56
2019-02-06T04:42:22.170Z,100853.92
2019-02-06T04:44:51.344Z,100849.41
2019-02-06T04:47:21.790Z,100845.75
2019-02-06T04:49:51.256Z,100848.44
2019-02-06T04:52:21.132Z,100846.44
2019-02-06T04:54:50.876Z,100851.93
2019-02-06T04:57:20.102Z,100853.80
2019-02-06T04:59:49.590Z,100848.97
2019-02-06T05:02:19.064Z,100850.13
2019-02-06T05:04:48.831Z,100847.47
2019-02-06T05:07:19.779Z,100843.99
2019-02-06T05:10:09.749Z,100843.99
2019-02-06T05:12:38.956Z,100845.62
2019-02-06T05:15:09.176Z,100845.95
2019-02-06T05:17:38.379Z,100835.78
2019-02-06T05:20:29.171Z,100835.80
2019-02-06T05:22:58.650Z,100831.14
2019-02-06T05:25:30.098Z,100839.48
2019-02-06T05:27:59.582Z,100833.99
2019-02-06T05:30:29.027Z,100821.97
2019-02-06T05:32:58.824Z,100820.66
2019-02-06T05:35:28.128Z,100819.66
2019-02-06T05:37:57.858Z,100816.80
2019-02-06T05:40:29.069Z,100815.80
2019-02-06T05:42:58.207Z,100810.78
2019-02-06T05:45:27.667Z,100811.75
2019-02-06T05:47:57.378Z,100816.04
2019-02-06T05:50:26.851Z,100815.67
2019-02-06T05:52:56.620Z,100814.03
2019-02-06T05:55:27.945Z,100812.53
2019-02-06T05:57:57.746Z,100811.53
2019-02-06T06:01:06.858Z,100806.71
2019-02-06T06:03:37.052Z,100802.40
2019-02-06T06:06:06.453Z,100807.05
2019-02-06T06:08:35.910Z,100813.74
2019-02-06T06:11:05.088Z,100803.90
2019-02-06T06:13:34.642Z,100796.57
2019-02-06T06:16:04.632Z,100792.42
2019-02-06T06:18:34.088Z,100790.78
2019-02-06T06:21:03.292Z,100789.80
2019-02-06T06:23:33.015Z,100783.45
2019-02-06T06:26:02.528Z,100783.45
2019-02-06T06:28:32.032Z,100778.77
2019-02-06T06:31:01.264Z,100772.65
2019-02-06T06:33:30.990Z,100772.45
2019-02-06T06:36:00.447Z,100769.86
2019-02-06T06:38:30.274Z,100765.87
2019-02-06T06:40:59.492Z,100763.81
2019-02-06T06:43:29.208Z,100773.50
2019-02-06T06:45:58.413Z,100768.84
2019-02-06T06:48:28.061Z,100764.38
2019-02-06T06:50:57.419Z,100762.54
2019-02-06T06:53:26.956Z,100754.67
2019-02-06T06:55:56.621Z,100758.33
2019-02-06T06:58:26.116Z,100759.02
2019-02-06T07:00:56.042Z,100760.33
2019-02-06T07:03:25.829Z,100758.52
2019-02-06T07:05:55.353Z,100758.87
2019-02-06T07:08:24.819Z,100765.05
2019-02-06T07:10:54.731Z,100770.08
2019-02-06T07:13:24.276Z,100761.09
2019-02-06T07:15:53.493Z,100768.94
2019-02-06T07:18:24.933Z,100773.28
2019-02-06T07:20:54.960Z,100770.41
2019-02-06T07:23:24.120Z,100772.41
2019-02-06T07:25:53.948Z,100778.05
2019-02-06T07:28:23.125Z,100773.38
2019-02-06T07:30:52.953Z,100776.99
2019-02-06T07:33:22.680Z,100770.93
2019-02-06T07:35:51.882Z,100771.22
2019-02-06T07:38:24.237Z,100765.64
2019-02-06T07:48:52.617Z,100764.45
2019-02-06T07:51:22.187Z,100759.14
2019-02-06T07:53:51.627Z,100751.18
2019-02-06T07:56:20.834Z,100751.73
2019-02-06T07:58:50.859Z,100751.08
2019-02-06T08:01:21.202Z,100755.54
2019-02-06T08:03:50.642Z,100745.59
2019-02-06T08:06:20.166Z,100744.97
2019-02-06T08:08:49.319Z,100747.36
2019-02-06T08:11:18.786Z,100741.25
2019-02-06T08:13:48.361Z,100753.29
2019-02-06T08:16:17.821Z,100766.72
2019-02-06T08:18:47.258Z,100765.70
2019-02-06T08:21:16.726Z,100770.02
2019-02-06T08:23:46.753Z,100777.30
2019-02-06T08:26:15.987Z,100768.75
2019-02-06T08:28:45.459Z,100771.17
2019-02-06T08:31:14.729Z,100770.98
2019-02-06T08:33:44.212Z,100778.12
2019-02-06T08:36:14.213Z,100771.92
2019-02-06T08:38:47.728Z,100751.18
2019-02-06T09:03:39.854Z,100793.63
2019-02-06T09:06:09.614Z,100788.27
2019-02-06T09:08:39.112Z,100792.53
2019-02-06T09:11:08.540Z,100796.64
2019-02-06T09:13:38.117Z,100806.07
2019-02-06T09:16:07.938Z,100810.57
2019-02-06T09:18:37.409Z,100811.56
2019-02-06T09:21:06.876Z,100811.32
2019-02-06T09:23:36.089Z,100821.75
2019-02-06T09:29:14.513Z,100829.51
2019-02-06T09:31:44.256Z,100828.81
2019-02-06T09:34:15.458Z,100829.89
2019-02-06T09:36:44.634Z,100832.58
2019-02-06T09:39:14.125Z,100832.88
2019-02-06T09:41:43.654Z,100833.58
2019-02-06T09:44:12.847Z,100842.94
2019-02-06T09:46:42.342Z,100835.06
2019-02-06T09:49:15.129Z,100842.23
2019-02-06T09:51:44.823Z,100842.30
2019-02-06T09:54:14.411Z,100852.48
2019-02-06T09:56:43.578Z,100852.17
2019-02-06T09:59:13.052Z,100859.63
2019-02-06T10:01:42.540Z,100871.31
2019-02-06T10:04:13.741Z,100876.80
2019-02-06T10:06:42.944Z,100870.52
2019-02-06T10:09:22.302Z,100873.28
2019-02-06T10:11:43.071Z,100870.58
2019-02-06T10:14:12.553Z,100864.00
2019-02-06T10:16:42.000Z,100863.03
2019-02-06T10:19:11.757Z,100866.46
2019-02-06T10:21:41.487Z,100868.73
2019-02-06T10:24:11.358Z,100876.81
2019-02-06T10:26:40.801Z,100874.00
2019-02-06T10:29:10.376Z,100887.06
2019-02-06T10:31:39.822Z,100885.94
2019-02-06T10:34:11.035Z,100874.62
2019-02-06T10:36:40.225Z,100883.14
2019-02-06T10:39:09.841Z,100883.75
2019-02-06T10:41:39.331Z,100880.30
2019-02-06T10:44:08.634Z,100878.27
2019-02-06T10:46:37.818Z,100877.94
2019-02-06T10:49:07.437Z,100878.22
2019-02-06T10:51:36.656Z,100875.52
2019-02-06T10:54:06.225Z,100871.21
2019-02-06T10:56:35.433Z,100873.13
2019-02-06T10:59:04.875Z,100865.23
2019-02-06T11:01:34.112Z,100856.84
2019-02-06T11:04:05.228Z,100854.36
2019-02-06T11:06:34.992Z,100855.23
2019-02-06T11:09:24.866Z,100854.16
2019-02-06T11:11:54.347Z,100850.84
2019-02-06T11:14:25.628Z,100859.63
2019-02-06T11:16:54.819Z,100870.74
2019-02-06T11:19:23.992Z,100867.04
2019-02-06T11:21:53.185Z,100866.75
2019-02-06T11:24:22.606Z,100875.85
2019-02-06T11:26:52.141Z,100874.20
2019-02-06T11:29:24.004Z,100872.93
2019-02-06T11:31:53.476Z,100872.86
2019-02-06T11:34:23.280Z,100871.13
2019-02-06T11:36:53.003Z,100863.17
2019-02-06T11:39:23.902Z,100862.27
2019-02-06T11:41:53.081Z,100862.05
2019-02-06T11:44:22.583Z,100853.86
2019-02-06T11:46:52.030Z,100850.78
2019-02-06T11:52:15.256Z,100845.07
2019-02-06T11:54:44.482Z,100840.56
2019-02-06T11:57:13.660Z,100845.97
2019-02-06T11:59:43.158Z,100843.17
2019-02-06T12:43:26.892Z,100761.52
2019-02-06T12:45:56.133Z,100762.33
2019-02-06T12:48:25.376Z,100756.05
2019-02-06T12:50:54.958Z,100749.81
2019-02-06T12:53:24.236Z,100742.45
2019-02-06T12:55:53.870Z,100739.33
2019-02-06T12:58:26.108Z,100730.30
2019-02-06T13:11:36.877Z,100707.89
2019-02-06T13:14:06.731Z,100701.34
2019-02-06T13:45:16.917Z,100677.91
2019-02-06T13:47:46.844Z,100682.99
2019-02-06T13:50:22.095Z,100674.10
2019-02-06T13:52:48.096Z,100677.63
2019-02-06T14:33:50.831Z,100622.25
2019-02-06T15:21:43.003Z,100578.55
2019-02-06T15:24:50.525Z,100581.39
2019-02-06T15:27:57.813Z,100576.73
2019-02-06T15:31:05.667Z,100570.23
2019-02-06T15:34:15.533Z,100551.33
2019-02-06T15:37:22.432Z,100539.50
2019-02-06T15:40:30.142Z,100529.19
2019-02-06T15:43:27.141Z,100529.66
2019-02-06T15:46:21.262Z,100529.05
2019-02-06T15:49:14.250Z,100518.20
2019-02-06T15:52:21.841Z,100511.63
2019-02-06T15:55:29.334Z,100503.76
2019-02-06T15:58:36.619Z,100496.02
2019-02-06T16:01:44.148Z,100487.72
2019-02-06T16:04:57.233Z,100496.25
2019-02-06T16:08:04.801Z,100488.83
2019-02-06T16:11:12.339Z,100498.63
2019-02-06T16:14:19.900Z,100486.77
2019-02-06T16:17:27.227Z,100480.45
2019-02-06T16:20:34.766Z,100470.20
2019-02-06T16:23:42.039Z,100461.14
2019-02-06T17:18:57.903Z,100382.53
2019-02-06T18:40:10.901Z,100362.39
2019-02-06T19:09:56.757Z,100332.95
2019-02-06T19:12:26.719Z,100337.31
2019-02-06T19:14:58.847Z,100328.87
2019-02-06T19:34:25.789Z,100314.17
2019-02-06T19:36:55.290Z,100313.75
2019-02-06T19:39:24.465Z,100309.72
2019-02-06T19:52:56.348Z,100304.02
2019-02-06T20:01:02.644Z,100288.70
2019-02-06T20:03:33.175Z,100300.16
2019-02-06T20:06:07.162Z,100289.80
2019-02-06T20:08:37.978Z,100299.73
2019-02-06T20:11:07.515Z,100291.58
2019-02-06T20:19:14.906Z,100276.72
2019-02-06T20:21:44.527Z,100282.22
2019-02-06T20:24:14.030Z,100278.90
2019-02-06T20:26:43.209Z,100276.78
2019-02-06T20:29:12.417Z,100278.30
2019-02-06T20:31:44.643Z,100267.08
2019-02-06T20:34:14.483Z,100262.84
2019-02-06T20:36:45.850Z,100254.53
2019-02-06T20:39:15.341Z,100243.69
2019-02-06T20:41:45.484Z,100241.50
2019-02-06T20:44:15.174Z,100235.52
2019-02-06T20:46:44.670Z,100231.66
2019-02-06T20:49:33.236Z,100222.64
2019-02-06T20:52:02.719Z,100226.08
2019-02-06T20:54:32.227Z,100227.26
2019-02-06T20:57:12.394Z,100229.03
2019-02-06T21:02:07.846Z,100210.11
2019-02-06T21:07:25.404Z,100211.55
2019-02-06T21:09:55.161Z,100218.66
2019-02-06T21:12:24.343Z,100218.05
2019-02-06T21:14:54.393Z,100212.20
2019-02-06T21:17:23.926Z,100213.23
2019-02-06T21:19:53.464Z,100213.73
2019-02-06T21:22:23.012Z,100208.08
2019-02-06T21:24:53.122Z,100204.23
2019-02-06T21:27:22.300Z,100208.97
2019-02-06T21:30:20.846Z,100197.86
2019-02-06T21:32:50.595Z,100187.13
2019-02-06T21:35:20.473Z,100185.56
2019-02-06T21:37:50.220Z,100187.77
2019-02-06T21:40:23.643Z,100195.52
2019-02-06T21:42:53.280Z,100188.39
2019-02-06T21:45:23.132Z,100181.38
2019-02-06T21:47:52.338Z,100175.02
2019-02-06T21:50:22.913Z,100174.28
2019-02-06T21:52:52.158Z,100170.36
2019-02-06T21:55:22.138Z,100174.11
2019-02-06T21:57:51.378Z,100171.08
2019-02-06T22:00:40.256Z,100169.79
2019-02-06T22:03:10.765Z,100167.48
2019-02-06T22:05:40.723Z,100167.59
2019-02-06T22:08:11.159Z,100172.83
2019-02-06T22:10:40.637Z,100166.75
2019-02-06T22:13:10.068Z,100158.36
2019-02-06T22:15:39.633Z,100156.69
2019-02-06T22:18:10.812Z,100152.47
2019-02-06T22:20:40.306Z,100146.22
2019-02-06T22:23:09.746Z,100145.52
2019-02-06T22:25:39.207Z,100140.88
2019-02-06T22:28:08.375Z,100132.52
2019-02-06T22:30:37.599Z,100141.45
2019-02-06T22:33:09.397Z,100122.42
2019-02-06T22:38:16.720Z,100127.32
2019-02-06T22:40:45.907Z,100123.15
2019-02-06T22:43:15.090Z,100116.61
2019-02-06T22:46:05.201Z,100113.83
2019-02-06T22:48:34.626Z,100107.02
2019-02-06T22:51:04.388Z,100099.70
2019-02-06T22:53:34.384Z,100099.19
2019-02-06T22:56:04.138Z,100087.78
2019-02-06T22:58:33.848Z,100089.06
2019-02-06T23:01:41.242Z,100083.03
2019-02-06T23:04:10.823Z,100083.55
2019-02-06T23:06:40.576Z,100076.89
2019-02-06T23:09:10.026Z,100091.16
2019-02-06T23:11:39.979Z,100084.95
2019-02-06T23:14:17.472Z,100074.69
2019-02-06T23:19:16.095Z,100074.45
2019-02-06T23:21:45.299Z,100069.00
2019-02-06T23:24:14.665Z,100068.56
2019-02-06T23:26:43.848Z,100058.41
2019-02-06T23:29:13.034Z,100065.13
2019-02-06T23:31:42.689Z,100059.95
2019-02-06T23:34:11.886Z,100050.43
2019-02-06T23:36:41.765Z,100046.08
2019-02-06T23:39:30.019Z,100048.72
2019-02-06T23:42:00.950Z,100047.00
2019-02-06T23:44:30.399Z,100039.67
2019-02-06T23:47:00.152Z,100025.83
2019-02-06T23:49:29.596Z,100021.05
2019-02-06T23:51:58.912Z,100017.34
2019-02-06T23:54:28.391Z,100011.73
2019-02-06T23:56:58.172Z,100007.78
2019-02-06T23:59:35.149Z,100011.08
